sensor_id;sensor_type;location;lat;lon;timestamp;P1;durP1;ratioP1;P2;durP2;ratioP2
15712;SDS011;7957;51.608;6.916;2022-09-21T00:01:25;2.60;;;2.00;;
15712;SDS011;7957;51.608;6.916;2022-09-21T00:03:54;4.03;;;1.90;;
15712;SDS011;7957;51.608;6.916;2022-09-21T00:06:24;3.53;;;2.10;;
15712;SDS011;7957;51.608;6.916;2022-09-21T00:08:53;1.87;;;1.67;;
15712;SDS011;7957;51.608;6.916;2022-09-21T00:11:21;2.60;;;1.87;;
15712;SDS011;7957;51.608;6.916;2022-09-21T00:13:51;4.27;;;2.00;;
15712;SDS011;7957;51.608;6.916;2022-09-21T00:16:19;3.50;;;1.70;;
15712;SDS011;7957;51.608;6.916;2022-09-21T00:18:46;3.53;;;2.00;;
15712;SDS011;7957;51.608;6.916;2022-09-21T00:21:14;3.33;;;2.00;;
15712;SDS011;7957;51.608;6.916;2022-09-21T00:23:43;3.17;;;2.10;;
15712;SDS011;7957;51.608;6.916;2022-09-21T00:26:10;2.60;;;2.10;;
15712;SDS011;7957;51.608;6.916;2022-09-21T00:28:39;4.37;;;2.10;;
15712;SDS011;7957;51.608;6.916;2022-09-21T00:31:08;3.30;;;2.30;;
15712;SDS011;7957;51.608;6.916;2022-09-21T00:33:36;4.80;;;2.20;;
15712;SDS011;7957;51.608;6.916;2022-09-21T00:36:04;2.90;;;2.07;;
15712;SDS011;7957;51.608;6.916;2022-09-21T00:38:32;5.03;;;2.37;;
15712;SDS011;7957;51.608;6.916;2022-09-21T00:41:02;3.93;;;2.17;;
15712;SDS011;7957;51.608;6.916;2022-09-21T00:43:31;2.60;;;2.20;;
15712;SDS011;7957;51.608;6.916;2022-09-21T00:46:00;3.10;;;2.10;;
15712;SDS011;7957;51.608;6.916;2022-09-21T00:48:29;4.27;;;2.00;;
15712;SDS011;7957;51.608;6.916;2022-09-21T00:50:57;2.83;;;1.97;;
15712;SDS011;7957;51.608;6.916;2022-09-21T00:53:28;2.60;;;2.00;;
15712;SDS011;7957;51.608;6.916;2022-09-21T00:55:56;5.87;;;2.23;;
15712;SDS011;7957;51.608;6.916;2022-09-21T00:58:27;2.00;;;1.70;;
15712;SDS011;7957;51.608;6.916;2022-09-21T01:00:57;3.37;;;2.07;;
15712;SDS011;7957;51.608;6.916;2022-09-21T01:03:25;3.50;;;2.13;;
15712;SDS011;7957;51.608;6.916;2022-09-21T01:05:53;2.90;;;1.90;;
15712;SDS011;7957;51.608;6.916;2022-09-21T01:08:20;3.37;;;1.70;;
15712;SDS011;7957;51.608;6.916;2022-09-21T01:10:54;3.50;;;2.03;;
15712;SDS011;7957;51.608;6.916;2022-09-21T01:13:36;2.83;;;1.70;;
15712;SDS011;7957;51.608;6.916;2022-09-21T01:16:13;2.23;;;1.70;;
15712;SDS011;7957;51.608;6.916;2022-09-21T01:18:45;5.03;;;2.13;;
15712;SDS011;7957;51.608;6.916;2022-09-21T01:21:20;2.10;;;1.90;;
15712;SDS011;7957;51.608;6.916;2022-09-21T01:24:10;2.00;;;1.80;;
15712;SDS011;7957;51.608;6.916;2022-09-21T01:27:01;2.27;;;1.80;;
15712;SDS011;7957;51.608;6.916;2022-09-21T01:29:50;2.73;;;1.90;;
15712;SDS011;7957;51.608;6.916;2022-09-21T01:32:21;4.73;;;2.00;;
15712;SDS011;7957;51.608;6.916;2022-09-21T01:34:52;3.87;;;2.10;;
15712;SDS011;7957;51.608;6.916;2022-09-21T01:37:25;3.70;;;2.20;;
15712;SDS011;7957;51.608;6.916;2022-09-21T01:39:58;3.80;;;2.07;;
15712;SDS011;7957;51.608;6.916;2022-09-21T01:42:28;4.40;;;2.10;;
15712;SDS011;7957;51.608;6.916;2022-09-21T01:44:59;2.50;;;2.10;;
15712;SDS011;7957;51.608;6.916;2022-09-21T01:47:29;2.30;;;1.73;;
15712;SDS011;7957;51.608;6.916;2022-09-21T01:49:57;2.63;;;1.90;;
15712;SDS011;7957;51.608;6.916;2022-09-21T01:52:30;2.93;;;2.03;;
15712;SDS011;7957;51.608;6.916;2022-09-21T01:55:00;2.47;;;1.87;;
15712;SDS011;7957;51.608;6.916;2022-09-21T01:57:31;2.60;;;2.07;;
15712;SDS011;7957;51.608;6.916;2022-09-21T02:00:06;2.73;;;1.73;;
15712;SDS011;7957;51.608;6.916;2022-09-21T02:02:36;4.00;;;2.00;;
15712;SDS011;7957;51.608;6.916;2022-09-21T02:05:06;4.80;;;2.10;;
15712;SDS011;7957;51.608;6.916;2022-09-21T02:07:33;2.50;;;2.20;;
15712;SDS011;7957;51.608;6.916;2022-09-21T02:10:03;2.60;;;2.03;;
15712;SDS011;7957;51.608;6.916;2022-09-21T02:12:31;3.07;;;2.00;;
15712;SDS011;7957;51.608;6.916;2022-09-21T02:14:58;2.53;;;2.03;;
15712;SDS011;7957;51.608;6.916;2022-09-21T02:17:31;2.83;;;2.10;;
15712;SDS011;7957;51.608;6.916;2022-09-21T02:20:07;3.30;;;2.20;;
15712;SDS011;7957;51.608;6.916;2022-09-21T02:22:46;2.80;;;2.20;;
15712;SDS011;7957;51.608;6.916;2022-09-21T02:25:27;4.10;;;1.93;;
15712;SDS011;7957;51.608;6.916;2022-09-21T02:28:00;2.90;;;2.00;;
15712;SDS011;7957;51.608;6.916;2022-09-21T02:30:33;3.40;;;1.90;;
15712;SDS011;7957;51.608;6.916;2022-09-21T02:33:05;2.67;;;2.07;;
15712;SDS011;7957;51.608;6.916;2022-09-21T02:35:37;3.63;;;2.30;;
15712;SDS011;7957;51.608;6.916;2022-09-21T02:38:10;2.20;;;2.00;;
15712;SDS011;7957;51.608;6.916;2022-09-21T02:40:42;5.50;;;2.17;;
15712;SDS011;7957;51.608;6.916;2022-09-21T02:43:17;4.97;;;2.10;;
15712;SDS011;7957;51.608;6.916;2022-09-21T02:45:49;3.20;;;2.40;;
15712;SDS011;7957;51.608;6.916;2022-09-21T02:48:23;3.60;;;2.43;;
15712;SDS011;7957;51.608;6.916;2022-09-21T02:50:55;2.70;;;2.30;;
15712;SDS011;7957;51.608;6.916;2022-09-21T02:53:24;3.97;;;2.57;;
15712;SDS011;7957;51.608;6.916;2022-09-21T02:55:56;4.47;;;2.30;;
15712;SDS011;7957;51.608;6.916;2022-09-21T02:58:27;2.77;;;2.23;;
15712;SDS011;7957;51.608;6.916;2022-09-21T03:00:55;2.40;;;2.20;;
15712;SDS011;7957;51.608;6.916;2022-09-21T03:03:25;3.00;;;2.30;;
15712;SDS011;7957;51.608;6.916;2022-09-21T03:05:53;3.10;;;2.10;;
15712;SDS011;7957;51.608;6.916;2022-09-21T03:08:20;4.60;;;2.30;;
15712;SDS011;7957;51.608;6.916;2022-09-21T03:10:47;2.50;;;2.30;;
15712;SDS011;7957;51.608;6.916;2022-09-21T03:13:15;4.27;;;2.23;;
15712;SDS011;7957;51.608;6.916;2022-09-21T03:15:42;3.60;;;2.37;;
15712;SDS011;7957;51.608;6.916;2022-09-21T03:18:10;2.80;;;2.37;;
15712;SDS011;7957;51.608;6.916;2022-09-21T03:20:39;2.83;;;2.40;;
15712;SDS011;7957;51.608;6.916;2022-09-21T03:23:10;3.67;;;2.73;;
15712;SDS011;7957;51.608;6.916;2022-09-21T03:25:37;3.77;;;2.60;;
15712;SDS011;7957;51.608;6.916;2022-09-21T03:28:04;3.87;;;2.37;;
15712;SDS011;7957;51.608;6.916;2022-09-21T03:30:31;2.53;;;2.20;;
15712;SDS011;7957;51.608;6.916;2022-09-21T03:32:59;5.03;;;2.70;;
15712;SDS011;7957;51.608;6.916;2022-09-21T03:35:25;5.03;;;2.40;;
15712;SDS011;7957;51.608;6.916;2022-09-21T03:37:54;2.87;;;2.57;;
15712;SDS011;7957;51.608;6.916;2022-09-21T03:40:22;5.20;;;2.53;;
15712;SDS011;7957;51.608;6.916;2022-09-21T03:42:50;3.67;;;2.57;;
15712;SDS011;7957;51.608;6.916;2022-09-21T03:45:18;4.03;;;2.67;;
15712;SDS011;7957;51.608;6.916;2022-09-21T03:47:46;4.30;;;2.73;;
15712;SDS011;7957;51.608;6.916;2022-09-21T03:50:13;5.13;;;2.60;;
15712;SDS011;7957;51.608;6.916;2022-09-21T03:52:41;2.60;;;2.40;;
15712;SDS011;7957;51.608;6.916;2022-09-21T03:55:09;4.57;;;2.47;;
15712;SDS011;7957;51.608;6.916;2022-09-21T03:57:36;3.13;;;2.60;;
15712;SDS011;7957;51.608;6.916;2022-09-21T04:00:04;5.17;;;2.47;;
15712;SDS011;7957;51.608;6.916;2022-09-21T04:02:33;3.13;;;2.53;;
15712;SDS011;7957;51.608;6.916;2022-09-21T04:05:01;3.80;;;3.17;;
15712;SDS011;7957;51.608;6.916;2022-09-21T04:07:29;3.80;;;2.70;;
15712;SDS011;7957;51.608;6.916;2022-09-21T04:09:58;5.10;;;3.10;;
15712;SDS011;7957;51.608;6.916;2022-09-21T04:12:26;4.60;;;3.13;;
15712;SDS011;7957;51.608;6.916;2022-09-21T04:14:53;3.67;;;3.00;;
15712;SDS011;7957;51.608;6.916;2022-09-21T04:17:20;4.27;;;2.93;;
15712;SDS011;7957;51.608;6.916;2022-09-21T04:19:47;4.97;;;3.17;;
15712;SDS011;7957;51.608;6.916;2022-09-21T04:22:14;3.33;;;2.93;;
15712;SDS011;7957;51.608;6.916;2022-09-21T04:24:42;3.50;;;2.97;;
15712;SDS011;7957;51.608;6.916;2022-09-21T04:27:09;3.70;;;3.00;;
15712;SDS011;7957;51.608;6.916;2022-09-21T04:29:38;4.00;;;2.90;;
15712;SDS011;7957;51.608;6.916;2022-09-21T04:32:05;3.87;;;3.27;;
15712;SDS011;7957;51.608;6.916;2022-09-21T04:34:32;3.50;;;3.20;;
15712;SDS011;7957;51.608;6.916;2022-09-21T04:36:59;3.60;;;3.30;;
15712;SDS011;7957;51.608;6.916;2022-09-21T04:39:26;3.50;;;3.20;;
15712;SDS011;7957;51.608;6.916;2022-09-21T04:41:53;3.50;;;3.20;;
15712;SDS011;7957;51.608;6.916;2022-09-21T04:44:20;3.23;;;2.70;;
15712;SDS011;7957;51.608;6.916;2022-09-21T04:46:49;4.10;;;3.10;;
15712;SDS011;7957;51.608;6.916;2022-09-21T04:49:16;4.20;;;3.80;;
15712;SDS011;7957;51.608;6.916;2022-09-21T04:51:43;3.33;;;3.03;;
15712;SDS011;7957;51.608;6.916;2022-09-21T04:54:10;4.03;;;3.43;;
15712;SDS011;7957;51.608;6.916;2022-09-21T04:56:37;4.17;;;3.13;;
15712;SDS011;7957;51.608;6.916;2022-09-21T04:59:04;4.07;;;3.50;;
15712;SDS011;7957;51.608;6.916;2022-09-21T05:01:31;3.60;;;3.30;;
15712;SDS011;7957;51.608;6.916;2022-09-21T05:03:59;4.23;;;3.63;;
15712;SDS011;7957;51.608;6.916;2022-09-21T05:06:27;4.37;;;3.60;;
15712;SDS011;7957;51.608;6.916;2022-09-21T05:08:54;4.43;;;3.97;;
15712;SDS011;7957;51.608;6.916;2022-09-21T05:11:35;5.03;;;4.50;;
15712;SDS011;7957;51.608;6.916;2022-09-21T05:14:03;4.30;;;3.77;;
15712;SDS011;7957;51.608;6.916;2022-09-21T05:16:30;4.43;;;3.70;;
15712;SDS011;7957;51.608;6.916;2022-09-21T05:18:57;4.23;;;3.83;;
15712;SDS011;7957;51.608;6.916;2022-09-21T05:21:25;5.57;;;3.93;;
15712;SDS011;7957;51.608;6.916;2022-09-21T05:24:09;5.47;;;4.07;;
15712;SDS011;7957;51.608;6.916;2022-09-21T05:27:11;4.17;;;3.77;;
15712;SDS011;7957;51.608;6.916;2022-09-21T05:29:38;4.17;;;3.77;;
15712;SDS011;7957;51.608;6.916;2022-09-21T05:32:07;5.07;;;3.70;;
15712;SDS011;7957;51.608;6.916;2022-09-21T05:34:43;4.70;;;4.10;;
15712;SDS011;7957;51.608;6.916;2022-09-21T05:37:29;4.77;;;3.90;;
15712;SDS011;7957;51.608;6.916;2022-09-21T05:40:07;4.97;;;4.47;;
15712;SDS011;7957;51.608;6.916;2022-09-21T05:42:36;4.30;;;3.90;;
15712;SDS011;7957;51.608;6.916;2022-09-21T05:47:44;4.23;;;3.67;;
15712;SDS011;7957;51.608;6.916;2022-09-21T05:48:08;4.50;;;4.10;;
15712;SDS011;7957;51.608;6.916;2022-09-21T05:50:45;5.03;;;4.40;;
15712;SDS011;7957;51.608;6.916;2022-09-21T05:53:26;4.73;;;4.23;;
15712;SDS011;7957;51.608;6.916;2022-09-21T05:56:05;5.97;;;4.73;;
15712;SDS011;7957;51.608;6.916;2022-09-21T05:58:55;4.93;;;4.43;;
15712;SDS011;7957;51.608;6.916;2022-09-21T06:01:34;8.70;;;4.20;;
15712;SDS011;7957;51.608;6.916;2022-09-21T06:04:14;4.60;;;4.13;;
15712;SDS011;7957;51.608;6.916;2022-09-21T06:06:41;5.50;;;4.70;;
15712;SDS011;7957;51.608;6.916;2022-09-21T06:09:09;6.30;;;4.27;;
15712;SDS011;7957;51.608;6.916;2022-09-21T06:11:36;5.13;;;4.63;;
15712;SDS011;7957;51.608;6.916;2022-09-21T06:14:03;6.80;;;4.50;;
15712;SDS011;7957;51.608;6.916;2022-09-21T06:16:35;5.37;;;4.63;;
15712;SDS011;7957;51.608;6.916;2022-09-21T06:19:03;7.07;;;4.67;;
15712;SDS011;7957;51.608;6.916;2022-09-21T06:21:30;7.23;;;4.67;;
15712;SDS011;7957;51.608;6.916;2022-09-21T06:23:57;5.33;;;4.40;;
15712;SDS011;7957;51.608;6.916;2022-09-21T06:26:25;5.10;;;4.43;;
15712;SDS011;7957;51.608;6.916;2022-09-21T06:28:52;6.43;;;4.53;;
15712;SDS011;7957;51.608;6.916;2022-09-21T06:31:19;5.93;;;4.53;;
15712;SDS011;7957;51.608;6.916;2022-09-21T06:33:47;6.00;;;4.90;;
15712;SDS011;7957;51.608;6.916;2022-09-21T06:36:14;5.10;;;4.60;;
15712;SDS011;7957;51.608;6.916;2022-09-21T06:38:41;8.27;;;4.70;;
15712;SDS011;7957;51.608;6.916;2022-09-21T06:41:08;7.70;;;4.70;;
15712;SDS011;7957;51.608;6.916;2022-09-21T06:43:37;7.90;;;4.67;;
15712;SDS011;7957;51.608;6.916;2022-09-21T06:46:04;4.97;;;4.23;;
15712;SDS011;7957;51.608;6.916;2022-09-21T06:48:31;6.67;;;4.40;;
15712;SDS011;7957;51.608;6.916;2022-09-21T06:51:00;5.90;;;4.37;;
15712;SDS011;7957;51.608;6.916;2022-09-21T06:53:28;6.13;;;5.07;;
15712;SDS011;7957;51.608;6.916;2022-09-21T06:56:00;11.40;;;4.87;;
15712;SDS011;7957;51.608;6.916;2022-09-21T06:58:28;10.10;;;5.13;;
15712;SDS011;7957;51.608;6.916;2022-09-21T07:00:57;7.43;;;4.80;;
15712;SDS011;7957;51.608;6.916;2022-09-21T07:03:24;8.13;;;4.60;;
15712;SDS011;7957;51.608;6.916;2022-09-21T07:05:52;9.53;;;5.10;;
15712;SDS011;7957;51.608;6.916;2022-09-21T07:08:18;5.43;;;4.50;;
15712;SDS011;7957;51.608;6.916;2022-09-21T07:10:45;8.07;;;5.03;;
15712;SDS011;7957;51.608;6.916;2022-09-21T07:13:12;6.20;;;5.00;;
15712;SDS011;7957;51.608;6.916;2022-09-21T07:15:41;9.10;;;5.30;;
15712;SDS011;7957;51.608;6.916;2022-09-21T07:18:13;7.20;;;5.10;;
15712;SDS011;7957;51.608;6.916;2022-09-21T07:20:40;5.90;;;4.90;;
15712;SDS011;7957;51.608;6.916;2022-09-21T07:23:10;5.80;;;5.20;;
15712;SDS011;7957;51.608;6.916;2022-09-21T07:25:39;7.67;;;5.40;;
15712;SDS011;7957;51.608;6.916;2022-09-21T07:28:06;10.03;;;6.03;;
15712;SDS011;7957;51.608;6.916;2022-09-21T07:30:33;9.33;;;5.90;;
15712;SDS011;7957;51.608;6.916;2022-09-21T07:33:02;8.43;;;5.80;;
15712;SDS011;7957;51.608;6.916;2022-09-21T07:35:30;7.03;;;5.33;;
15712;SDS011;7957;51.608;6.916;2022-09-21T07:37:58;6.67;;;5.40;;
15712;SDS011;7957;51.608;6.916;2022-09-21T07:40:27;12.20;;;5.70;;
15712;SDS011;7957;51.608;6.916;2022-09-21T07:42:56;9.30;;;5.53;;
15712;SDS011;7957;51.608;6.916;2022-09-21T07:45:24;6.93;;;5.30;;
15712;SDS011;7957;51.608;6.916;2022-09-21T07:47:51;8.83;;;5.63;;
15712;SDS011;7957;51.608;6.916;2022-09-21T07:50:18;9.10;;;5.90;;
15712;SDS011;7957;51.608;6.916;2022-09-21T07:52:47;6.00;;;5.40;;
15712;SDS011;7957;51.608;6.916;2022-09-21T07:55:14;6.80;;;5.33;;
15712;SDS011;7957;51.608;6.916;2022-09-21T07:57:41;7.83;;;5.33;;
15712;SDS011;7957;51.608;6.916;2022-09-21T08:00:25;6.77;;;5.40;;
15712;SDS011;7957;51.608;6.916;2022-09-21T08:02:53;5.83;;;5.13;;
15712;SDS011;7957;51.608;6.916;2022-09-21T08:05:20;7.57;;;4.90;;
15712;SDS011;7957;51.608;6.916;2022-09-21T08:07:48;6.20;;;5.37;;
15712;SDS011;7957;51.608;6.916;2022-09-21T08:10:17;6.87;;;4.87;;
15712;SDS011;7957;51.608;6.916;2022-09-21T08:12:44;6.13;;;4.97;;
15712;SDS011;7957;51.608;6.916;2022-09-21T08:15:10;6.17;;;5.20;;
15712;SDS011;7957;51.608;6.916;2022-09-21T08:17:38;7.10;;;4.90;;
15712;SDS011;7957;51.608;6.916;2022-09-21T08:20:06;6.73;;;5.43;;
15712;SDS011;7957;51.608;6.916;2022-09-21T08:22:33;5.57;;;4.87;;
15712;SDS011;7957;51.608;6.916;2022-09-21T08:25:01;7.30;;;4.90;;
15712;SDS011;7957;51.608;6.916;2022-09-21T08:27:28;5.93;;;4.80;;
15712;SDS011;7957;51.608;6.916;2022-09-21T08:29:55;6.40;;;5.17;;
15712;SDS011;7957;51.608;6.916;2022-09-21T08:32:22;5.13;;;4.63;;
15712;SDS011;7957;51.608;6.916;2022-09-21T08:34:49;6.97;;;5.03;;
15712;SDS011;7957;51.608;6.916;2022-09-21T08:37:16;5.00;;;4.50;;
15712;SDS011;7957;51.608;6.916;2022-09-21T08:39:45;5.63;;;4.40;;
15712;SDS011;7957;51.608;6.916;2022-09-21T08:42:18;7.00;;;4.87;;
15712;SDS011;7957;51.608;6.916;2022-09-21T08:45:02;6.43;;;4.50;;
15712;SDS011;7957;51.608;6.916;2022-09-21T08:47:34;8.50;;;4.80;;
15712;SDS011;7957;51.608;6.916;2022-09-21T08:50:11;5.27;;;4.33;;
15712;SDS011;7957;51.608;6.916;2022-09-21T08:52:48;4.67;;;3.90;;
15712;SDS011;7957;51.608;6.916;2022-09-21T08:55:18;5.77;;;4.37;;
15712;SDS011;7957;51.608;6.916;2022-09-21T08:57:47;5.03;;;4.53;;
15712;SDS011;7957;51.608;6.916;2022-09-21T09:00:15;5.67;;;4.30;;
15712;SDS011;7957;51.608;6.916;2022-09-21T09:02:48;6.53;;;4.07;;
15712;SDS011;7957;51.608;6.916;2022-09-21T09:05:43;7.10;;;4.67;;
15712;SDS011;7957;51.608;6.916;2022-09-21T09:11:18;5.80;;;4.80;;
15712;SDS011;7957;51.608;6.916;2022-09-21T09:13:57;8.47;;;4.80;;
15712;SDS011;7957;51.608;6.916;2022-09-21T09:16:39;6.70;;;4.73;;
15712;SDS011;7957;51.608;6.916;2022-09-21T09:19:15;6.57;;;4.30;;
15712;SDS011;7957;51.608;6.916;2022-09-21T09:21:47;6.03;;;4.43;;
15712;SDS011;7957;51.608;6.916;2022-09-21T09:24:15;9.43;;;4.77;;
15712;SDS011;7957;51.608;6.916;2022-09-21T09:26:48;8.13;;;4.00;;
15712;SDS011;7957;51.608;6.916;2022-09-21T09:29:21;5.43;;;3.83;;
15712;SDS011;7957;51.608;6.916;2022-09-21T09:31:53;6.23;;;4.30;;
15712;SDS011;7957;51.608;6.916;2022-09-21T09:34:23;5.50;;;3.90;;
15712;SDS011;7957;51.608;6.916;2022-09-21T09:36:56;6.33;;;4.07;;
15712;SDS011;7957;51.608;6.916;2022-09-21T09:39:24;5.03;;;3.43;;
15712;SDS011;7957;51.608;6.916;2022-09-21T09:42:08;6.67;;;3.70;;
15712;SDS011;7957;51.608;6.916;2022-09-21T09:44:53;4.73;;;3.63;;
15712;SDS011;7957;51.608;6.916;2022-09-21T09:47:35;6.63;;;3.77;;
15712;SDS011;7957;51.608;6.916;2022-09-21T09:50:15;4.03;;;3.60;;
15712;SDS011;7957;51.608;6.916;2022-09-21T09:52:47;6.00;;;3.53;;
15712;SDS011;7957;51.608;6.916;2022-09-21T09:55:19;5.30;;;3.37;;
15712;SDS011;7957;51.608;6.916;2022-09-21T09:57:49;7.30;;;4.20;;
15712;SDS011;7957;51.608;6.916;2022-09-21T10:00:21;6.63;;;3.57;;
15712;SDS011;7957;51.608;6.916;2022-09-21T10:02:49;5.63;;;3.57;;
15712;SDS011;7957;51.608;6.916;2022-09-21T10:05:18;8.87;;;3.67;;
15712;SDS011;7957;51.608;6.916;2022-09-21T10:07:47;5.00;;;3.47;;
15712;SDS011;7957;51.608;6.916;2022-09-21T10:10:29;5.30;;;3.43;;
15712;SDS011;7957;51.608;6.916;2022-09-21T10:13:04;6.47;;;3.13;;
15712;SDS011;7957;51.608;6.916;2022-09-21T10:15:40;7.27;;;3.40;;
15712;SDS011;7957;51.608;6.916;2022-09-21T10:18:14;7.27;;;4.10;;
15712;SDS011;7957;51.608;6.916;2022-09-21T10:20:51;7.50;;;3.73;;
15712;SDS011;7957;51.608;6.916;2022-09-21T10:23:21;8.43;;;3.87;;
15712;SDS011;7957;51.608;6.916;2022-09-21T10:25:57;8.20;;;4.10;;
15712;SDS011;7957;51.608;6.916;2022-09-21T10:28:26;7.43;;;3.10;;
15712;SDS011;7957;51.608;6.916;2022-09-21T10:31:07;5.40;;;3.23;;
15712;SDS011;7957;51.608;6.916;2022-09-21T10:33:46;6.37;;;3.03;;
15712;SDS011;7957;51.608;6.916;2022-09-21T10:36:31;6.60;;;3.13;;
15712;SDS011;7957;51.608;6.916;2022-09-21T10:39:16;6.73;;;3.60;;
15712;SDS011;7957;51.608;6.916;2022-09-21T10:41:46;6.90;;;3.50;;
15712;SDS011;7957;51.608;6.916;2022-09-21T10:44:15;9.23;;;3.40;;
15712;SDS011;7957;51.608;6.916;2022-09-21T10:46:45;5.13;;;3.03;;
15712;SDS011;7957;51.608;6.916;2022-09-21T10:49:14;5.27;;;2.93;;
15712;SDS011;7957;51.608;6.916;2022-09-21T10:51:49;5.43;;;2.70;;
15712;SDS011;7957;51.608;6.916;2022-09-21T10:54:20;4.93;;;2.60;;
15712;SDS011;7957;51.608;6.916;2022-09-21T10:56:53;6.00;;;2.57;;
15712;SDS011;7957;51.608;6.916;2022-09-21T10:59:25;3.97;;;2.23;;
15712;SDS011;7957;51.608;6.916;2022-09-21T11:01:55;2.93;;;2.23;;
15712;SDS011;7957;51.608;6.916;2022-09-21T11:04:29;3.73;;;2.27;;
15712;SDS011;7957;51.608;6.916;2022-09-21T11:07:04;3.90;;;2.13;;
15712;SDS011;7957;51.608;6.916;2022-09-21T11:09:42;5.27;;;2.10;;
15712;SDS011;7957;51.608;6.916;2022-09-21T11:12:25;4.70;;;1.80;;
15712;SDS011;7957;51.608;6.916;2022-09-21T11:15:02;3.60;;;1.87;;
15712;SDS011;7957;51.608;6.916;2022-09-21T11:17:42;3.10;;;1.83;;
15712;SDS011;7957;51.608;6.916;2022-09-21T11:20:16;2.80;;;1.57;;
15712;SDS011;7957;51.608;6.916;2022-09-21T11:22:54;3.43;;;1.93;;
15712;SDS011;7957;51.608;6.916;2022-09-21T11:25:30;4.00;;;1.50;;
15712;SDS011;7957;51.608;6.916;2022-09-21T11:28:02;2.77;;;1.57;;
15712;SDS011;7957;51.608;6.916;2022-09-21T11:30:40;3.60;;;1.60;;
15712;SDS011;7957;51.608;6.916;2022-09-21T11:33:25;3.50;;;1.60;;
15712;SDS011;7957;51.608;6.916;2022-09-21T11:36:09;1.97;;;1.33;;
15712;SDS011;7957;51.608;6.916;2022-09-21T11:38:45;2.00;;;1.60;;
15712;SDS011;7957;51.608;6.916;2022-09-21T11:41:27;3.03;;;1.60;;
15712;SDS011;7957;51.608;6.916;2022-09-21T11:44:12;1.63;;;1.20;;
15712;SDS011;7957;51.608;6.916;2022-09-21T11:46:49;2.77;;;1.50;;
15712;SDS011;7957;51.608;6.916;2022-09-21T11:49:30;2.07;;;1.50;;
15712;SDS011;7957;51.608;6.916;2022-09-21T11:52:14;3.63;;;1.50;;
15712;SDS011;7957;51.608;6.916;2022-09-21T11:57:48;2.57;;;1.33;;
15712;SDS011;7957;51.608;6.916;2022-09-21T12:00:19;2.53;;;1.47;;
15712;SDS011;7957;51.608;6.916;2022-09-21T12:02:56;2.10;;;1.43;;
15712;SDS011;7957;51.608;6.916;2022-09-21T12:05:57;2.93;;;1.60;;
15712;SDS011;7957;51.608;6.916;2022-09-21T12:08:41;2.07;;;1.27;;
15712;SDS011;7957;51.608;6.916;2022-09-21T12:11:20;1.97;;;1.60;;
15712;SDS011;7957;51.608;6.916;2022-09-21T12:13:56;1.63;;;1.47;;
15712;SDS011;7957;51.608;6.916;2022-09-21T12:16:33;1.77;;;1.40;;
15712;SDS011;7957;51.608;6.916;2022-09-21T12:19:08;2.40;;;1.60;;
15712;SDS011;7957;51.608;6.916;2022-09-21T12:21:41;1.93;;;1.43;;
15712;SDS011;7957;51.608;6.916;2022-09-21T12:24:13;2.23;;;1.33;;
15712;SDS011;7957;51.608;6.916;2022-09-21T12:26:46;2.93;;;1.63;;
15712;SDS011;7957;51.608;6.916;2022-09-21T12:29:16;1.93;;;1.40;;
15712;SDS011;7957;51.608;6.916;2022-09-21T12:31:50;2.27;;;1.50;;
15712;SDS011;7957;51.608;6.916;2022-09-21T12:34:25;4.27;;;1.50;;
15712;SDS011;7957;51.608;6.916;2022-09-21T12:36:59;3.40;;;1.80;;
15712;SDS011;7957;51.608;6.916;2022-09-21T12:39:34;3.93;;;1.60;;
15712;SDS011;7957;51.608;6.916;2022-09-21T12:42:16;4.30;;;1.60;;
15712;SDS011;7957;51.608;6.916;2022-09-21T12:44:50;2.60;;;1.70;;
15712;SDS011;7957;51.608;6.916;2022-09-21T12:47:22;3.70;;;1.80;;
15712;SDS011;7957;51.608;6.916;2022-09-21T12:49:56;1.90;;;1.50;;
15712;SDS011;7957;51.608;6.916;2022-09-21T12:52:29;3.20;;;1.63;;
15712;SDS011;7957;51.608;6.916;2022-09-21T12:54:58;4.33;;;1.90;;
15712;SDS011;7957;51.608;6.916;2022-09-21T12:57:48;3.87;;;1.80;;
15712;SDS011;7957;51.608;6.916;2022-09-21T13:00:21;3.20;;;1.80;;
15712;SDS011;7957;51.608;6.916;2022-09-21T13:02:55;2.00;;;1.50;;
15712;SDS011;7957;51.608;6.916;2022-09-21T13:05:32;2.00;;;1.60;;
15712;SDS011;7957;51.608;6.916;2022-09-21T13:08:07;2.13;;;1.63;;
15712;SDS011;7957;51.608;6.916;2022-09-21T13:10:44;2.17;;;1.50;;
15712;SDS011;7957;51.608;6.916;2022-09-21T13:13:21;2.20;;;1.47;;
15712;SDS011;7957;51.608;6.916;2022-09-21T13:15:50;1.53;;;1.43;;
15712;SDS011;7957;51.608;6.916;2022-09-21T13:18:22;3.17;;;1.80;;
15712;SDS011;7957;51.608;6.916;2022-09-21T13:20:52;2.20;;;1.40;;
15712;SDS011;7957;51.608;6.916;2022-09-21T13:23:24;1.77;;;1.40;;
15712;SDS011;7957;51.608;6.916;2022-09-21T13:26:00;2.17;;;1.50;;
15712;SDS011;7957;51.608;6.916;2022-09-21T13:28:40;2.73;;;1.63;;
15712;SDS011;7957;51.608;6.916;2022-09-21T13:31:39;2.33;;;1.70;;
15712;SDS011;7957;51.608;6.916;2022-09-21T13:34:23;2.40;;;1.63;;
15712;SDS011;7957;51.608;6.916;2022-09-21T13:46:10;2.83;;;1.60;;
15712;SDS011;7957;51.608;6.916;2022-09-21T13:49:18;3.50;;;1.70;;
15712;SDS011;7957;51.608;6.916;2022-09-21T13:51:50;2.77;;;1.80;;
15712;SDS011;7957;51.608;6.916;2022-09-21T13:54:20;3.33;;;1.60;;
15712;SDS011;7957;51.608;6.916;2022-09-21T13:57:00;2.50;;;1.60;;
15712;SDS011;7957;51.608;6.916;2022-09-21T13:59:32;2.80;;;1.70;;
15712;SDS011;7957;51.608;6.916;2022-09-21T14:02:02;4.33;;;1.97;;
15712;SDS011;7957;51.608;6.916;2022-09-21T14:05:00;3.03;;;1.63;;
15712;SDS011;7957;51.608;6.916;2022-09-21T14:07:33;1.80;;;1.53;;
15712;SDS011;7957;51.608;6.916;2022-09-21T14:10:01;2.70;;;1.60;;
15712;SDS011;7957;51.608;6.916;2022-09-21T14:12:32;2.93;;;1.60;;
15712;SDS011;7957;51.608;6.916;2022-09-21T14:18:15;4.10;;;1.80;;
15712;SDS011;7957;51.608;6.916;2022-09-21T14:21:06;2.67;;;1.63;;
15712;SDS011;7957;51.608;6.916;2022-09-21T14:23:34;3.03;;;1.60;;
15712;SDS011;7957;51.608;6.916;2022-09-21T14:26:17;2.00;;;1.60;;
15712;SDS011;7957;51.608;6.916;2022-09-21T14:28:48;3.07;;;1.40;;
15712;SDS011;7957;51.608;6.916;2022-09-21T14:31:20;2.43;;;1.60;;
15712;SDS011;7957;51.608;6.916;2022-09-21T14:33:52;3.83;;;1.60;;
15712;SDS011;7957;51.608;6.916;2022-09-21T14:36:21;4.27;;;1.70;;
15712;SDS011;7957;51.608;6.916;2022-09-21T14:38:55;3.23;;;1.67;;
15712;SDS011;7957;51.608;6.916;2022-09-21T14:41:28;1.87;;;1.27;;
15712;SDS011;7957;51.608;6.916;2022-09-21T14:43:58;2.57;;;1.70;;
15712;SDS011;7957;51.608;6.916;2022-09-21T14:46:37;2.37;;;1.37;;
15712;SDS011;7957;51.608;6.916;2022-09-21T14:49:21;5.13;;;1.67;;
15712;SDS011;7957;51.608;6.916;2022-09-21T14:52:02;4.07;;;1.73;;
15712;SDS011;7957;51.608;6.916;2022-09-21T14:54:47;1.83;;;1.20;;
15712;SDS011;7957;51.608;6.916;2022-09-21T14:57:36;2.30;;;1.60;;
15712;SDS011;7957;51.608;6.916;2022-09-21T15:00:18;2.37;;;1.40;;
15712;SDS011;7957;51.608;6.916;2022-09-21T15:02:52;2.27;;;1.43;;
15712;SDS011;7957;51.608;6.916;2022-09-21T15:05:35;3.67;;;1.60;;
15712;SDS011;7957;51.608;6.916;2022-09-21T15:08:11;2.37;;;1.20;;
15712;SDS011;7957;51.608;6.916;2022-09-21T15:11:08;1.37;;;1.20;;
15712;SDS011;7957;51.608;6.916;2022-09-21T15:13:48;4.23;;;1.73;;
15712;SDS011;7957;51.608;6.916;2022-09-21T15:16:27;2.20;;;1.57;;
15712;SDS011;7957;51.608;6.916;2022-09-21T15:19:10;2.40;;;1.30;;
15712;SDS011;7957;51.608;6.916;2022-09-21T15:21:39;2.33;;;1.63;;
15712;SDS011;7957;51.608;6.916;2022-09-21T15:24:09;2.37;;;1.43;;
15712;SDS011;7957;51.608;6.916;2022-09-21T15:26:44;2.63;;;1.40;;
15712;SDS011;7957;51.608;6.916;2022-09-21T15:29:17;2.90;;;1.70;;
15712;SDS011;7957;51.608;6.916;2022-09-21T15:31:48;3.47;;;1.40;;
15712;SDS011;7957;51.608;6.916;2022-09-21T15:34:17;2.80;;;1.50;;
15712;SDS011;7957;51.608;6.916;2022-09-21T15:36:44;3.60;;;1.50;;
15712;SDS011;7957;51.608;6.916;2022-09-21T15:39:23;3.03;;;1.50;;
15712;SDS011;7957;51.608;6.916;2022-09-21T15:44:42;2.50;;;1.30;;
15712;SDS011;7957;51.608;6.916;2022-09-21T15:47:13;2.50;;;1.50;;
15712;SDS011;7957;51.608;6.916;2022-09-21T15:49:43;2.77;;;1.57;;
15712;SDS011;7957;51.608;6.916;2022-09-21T15:52:12;2.70;;;1.50;;
15712;SDS011;7957;51.608;6.916;2022-09-21T15:54:50;3.07;;;1.50;;